Time;durP1;ratioP1;P1;durP2;ratioP2;P2;SDS_P1;SDS_P2;PMS_P1;PMS_P2;Temp;Humidity;BMP_temperature;BMP_pressure;BME280_temperature;BME280_humidity;BME280_pressure;Samples;Min_cycle;Max_cycle;Signal;HPM_P1;HPM_P2
2023/03/12 00:02:00;;;;;;;;;;;;;;;7.36;40.35;94246.50;5027446;28;19959;-60
2023/03/12 00:04:27;;;;;;;;;;;;;;;7.61;39.98;94236.25;5028112;28;19975;-61
2023/03/12 00:06:53;;;;;;;;;;;;;;;7.47;40.57;94240.31;5027534;28;20427;-61
2023/03/12 00:09:20;;;;;;;;;;;;;;;7.12;41.14;94248.66;5027863;28;19955;-61
2023/03/12 00:11:47;;;;;;;;;;;;;;;7.22;40.24;94259.19;5027892;28;19951;-61
2023/03/12 00:14:13;;;;;;;;;;;;;;;7.68;40.13;94257.66;5027777;28;20286;-60
2023/03/12 00:16:40;;;;;;;;;;;;;;;7.92;39.45;94269.25;5027806;28;20006;-60
2023/03/12 00:19:10;;;;;;;;;;;;;;;7.66;39.85;94272.78;5028258;28;19955;-61
2023/03/12 00:21:36;;;;;;;;;;;;;;;7.10;39.86;94288.00;5027395;28;20327;-60
2023/03/12 00:24:04;;;;;;;;;;;;;;;6.96;40.47;94276.44;5027820;28;19959;-60
2023/03/12 00:26:30;;;;;;;;;;;;;;;7.52;40.07;94289.88;5027081;28;20031;-61
2023/03/12 00:28:57;;;;;;;;;;;;;;;7.45;40.18;94294.50;5028332;28;19962;-61
2023/03/12 00:31:26;;;;;;;;;;;;;;;7.51;40.01;94290.91;5027898;28;19952;-61
2023/03/12 00:33:54;;;;;;;;;;;;;;;7.19;40.36;94296.13;5027856;28;20402;-61
2023/03/12 00:36:23;;;;;;;;;;;;;;;7.31;40.81;94288.16;5026340;28;20347;-61
2023/03/12 00:38:50;;;;;;;;;;;;;;;6.94;41.00;94296.72;5043573;28;20047;-60
2023/03/12 00:41:20;;;;;;;;;;;;;;;7.12;40.12;94298.16;5025979;28;19966;-60
2023/03/12 00:43:48;;;;;;;;;;;;;;;6.51;41.00;94307.25;5027952;28;20070;-61
2023/03/12 00:46:16;;;;;;;;;;;;;;;7.15;40.29;94295.09;5027604;28;19953;-61
2023/03/12 00:48:43;;;;;;;;;;;;;;;7.31;40.30;94293.38;5026606;28;20373;-60
2023/03/12 00:51:10;;;;;;;;;;;;;;;7.12;40.12;94295.56;5042552;28;19951;-61
2023/03/12 00:53:37;;;;;;;;;;;;;;;7.34;39.94;94285.03;5044802;28;19956;-59
2023/03/12 00:56:04;;;;;;;;;;;;;;;7.09;40.16;94296.88;5032044;28;20041;-59
2023/03/12 00:58:31;;;;;;;;;;;;;;;6.73;41.31;94297.56;5018413;28;19956;-60
2023/03/12 01:00:57;;;;;;;;;;;;;;;7.04;40.45;94293.44;5029649;28;19975;-60
2023/03/12 01:03:24;;;;;;;;;;;;;;;7.43;40.57;94299.19;5031774;28;19947;-60
2023/03/12 01:05:54;;;;;;;;;;;;;;;7.26;40.25;94293.34;5034519;28;19966;-61
2023/03/12 01:08:21;;;;;;;;;;;;;;;7.51;40.00;94293.53;5028783;28;19947;-62
2023/03/12 01:10:48;;;;;;;;;;;;;;;6.77;40.68;94308.28;5029160;28;19956;-60
2023/03/12 01:13:15;;;;;;;;;;;;;;;7.03;40.79;94305.66;5028896;28;19955;-61
2023/03/12 01:15:43;;;;;;;;;;;;;;;6.68;40.83;94309.75;5030163;28;19969;-61
2023/03/12 01:18:10;;;;;;;;;;;;;;;6.90;41.43;94308.66;5031130;28;19967;-60
2023/03/12 01:20:37;;;;;;;;;;;;;;;7.21;40.49;94314.16;5029775;28;19954;-60
2023/03/12 01:23:04;;;;;;;;;;;;;;;7.06;40.38;94312.97;5031380;28;20020;-61
2023/03/12 01:25:32;;;;;;;;;;;;;;;6.94;41.08;94321.97;5029557;28;20557;-60
2023/03/12 01:28:02;;;;;;;;;;;;;;;6.15;41.91;94323.44;5036252;28;19993;-60
2023/03/12 01:30:30;;;;;;;;;;;;;;;6.35;42.49;94323.69;5016742;28;19955;-60
2023/03/12 01:32:57;;;;;;;;;;;;;;;6.62;41.99;94332.34;5030434;28;19969;-60
2023/03/12 01:35:24;;;;;;;;;;;;;;;6.74;41.21;94319.97;5031904;28;20515;-60
2023/03/12 01:37:51;;;;;;;;;;;;;;;6.82;40.85;94316.94;5030559;28;19948;-61
2023/03/12 01:40:19;;;;;;;;;;;;;;;6.19;42.00;94316.75;5030009;28;19950;-59
2023/03/12 01:42:56;;;;;;;;;;;;;;;6.03;42.03;94328.00;5030507;28;19955;-60
2023/03/12 01:45:42;;;;;;;;;;;;;;;6.18;41.81;94320.38;5029898;28;20026;-59
2023/03/12 01:48:09;;;;;;;;;;;;;;;6.24;42.17;94319.38;5029400;28;19944;-60
2023/03/12 01:50:36;;;;;;;;;;;;;;;6.54;41.76;94321.56;5030760;28;19963;-61
2023/03/12 01:53:02;;;;;;;;;;;;;;;6.41;41.75;94319.34;5046410;28;19957;-60
2023/03/12 01:55:30;;;;;;;;;;;;;;;6.05;42.46;94331.13;5030759;28;20394;-60
2023/03/12 01:57:57;;;;;;;;;;;;;;;6.53;42.10;94322.59;5029551;28;19958;-60
2023/03/12 02:00:25;;;;;;;;;;;;;;;6.69;41.91;94319.91;5029753;28;19966;-60
2023/03/12 02:02:58;;;;;;;;;;;;;;;6.76;41.86;94317.13;5031015;28;20703;-60
2023/03/12 02:05:47;;;;;;;;;;;;;;;6.46;41.85;94322.78;5033364;28;20029;-60
2023/03/12 02:08:16;;;;;;;;;;;;;;;6.85;41.04;94323.44;5028146;28;20513;-58
2023/03/12 02:10:43;;;;;;;;;;;;;;;6.84;41.29;94327.88;5029901;28;19969;-59
2023/03/12 02:13:10;;;;;;;;;;;;;;;6.77;40.72;94322.06;5028910;28;19959;-60
2023/03/12 02:15:43;;;;;;;;;;;;;;;7.08;40.71;94323.94;5028938;28;19945;-60
2023/03/12 02:18:12;;;;;;;;;;;;;;;6.92;40.33;94327.44;5045834;28;20041;-60
2023/03/12 02:20:57;;;;;;;;;;;;;;;7.28;40.55;94315.50;5029907;28;19986;-60
2023/03/12 02:23:34;;;;;;;;;;;;;;;7.26;39.68;94327.22;5037250;28;20010;-61
2023/03/12 02:26:03;;;;;;;;;;;;;;;6.68;41.33;94326.16;5037926;28;20332;-59
2023/03/12 02:28:32;;;;;;;;;;;;;;;6.21;40.80;94335.50;5027935;28;20049;-60
2023/03/12 02:31:01;;;;;;;;;;;;;;;6.86;40.05;94322.44;5028601;28;19949;-61
2023/03/12 02:33:27;;;;;;;;;;;;;;;6.83;40.34;94321.09;5028449;28;19947;-60
2023/03/12 02:35:54;;;;;;;;;;;;;;;7.11;40.30;94320.06;5029032;28;19950;-60
2023/03/12 02:38:49;;;;;;;;;;;;;;;6.50;41.35;94316.06;5014913;28;19950;-60
2023/03/12 02:41:25;;;;;;;;;;;;;;;6.64;41.34;94325.06;5027002;28;19982;-62
2023/03/12 02:43:58;;;;;;;;;;;;;;;6.81;40.90;94315.34;5044698;28;19955;-60
2023/03/12 02:46:25;;;;;;;;;;;;;;;5.70;42.16;94309.81;5027516;28;19957;-60
2023/03/12 02:48:52;;;;;;;;;;;;;;;5.88;42.28;94314.78;5030797;28;19946;-60
2023/03/12 02:51:19;;;;;;;;;;;;;;;5.87;42.48;94308.03;5028654;28;19950;-60
2023/03/12 02:53:48;;;;;;;;;;;;;;;6.45;42.17;94310.81;5029659;28;19967;-60
2023/03/12 02:56:15;;;;;;;;;;;;;;;6.39;42.30;94316.97;5027804;28;19960;-60
2023/03/12 02:58:43;;;;;;;;;;;;;;;6.38;41.99;94310.22;5029298;28;19945;-60
2023/03/12 03:01:10;;;;;;;;;;;;;;;6.46;42.10;94319.41;5027378;28;20428;-60
2023/03/12 03:03:37;;;;;;;;;;;;;;;6.22;42.15;94313.69;5029288;28;19956;-60
2023/03/12 03:06:03;;;;;;;;;;;;;;;6.38;41.78;94320.63;5026940;28;19956;-60
2023/03/12 03:08:30;;;;;;;;;;;;;;;6.01;42.39;94314.44;5027792;28;20735;-59
2023/03/12 03:10:57;;;;;;;;;;;;;;;5.81;43.10;94314.13;5026924;28;19992;-61
2023/03/12 03:13:24;;;;;;;;;;;;;;;6.10;43.06;94318.97;5029042;28;20380;-61
2023/03/12 03:15:51;;;;;;;;;;;;;;;6.28;42.63;94320.50;5025889;28;19962;-61
2023/03/12 03:18:18;;;;;;;;;;;;;;;6.40;42.67;94331.56;5028799;28;19950;-60
2023/03/12 03:20:53;;;;;;;;;;;;;;;6.76;42.22;94330.94;5029909;28;19982;-59
2023/03/12 03:23:21;;;;;;;;;;;;;;;6.43;42.09;94328.47;5027326;28;19951;-60
2023/03/12 03:25:47;;;;;;;;;;;;;;;6.74;41.63;94325.16;5027403;28;20367;-60
2023/03/12 03:28:14;;;;;;;;;;;;;;;6.11;42.08;94323.16;5043579;28;19945;-59
2023/03/12 03:30:41;;;;;;;;;;;;;;;6.28;42.45;94330.91;5028306;28;19946;-59
2023/03/12 03:33:07;;;;;;;;;;;;;;;6.64;41.92;94335.47;5026844;28;20001;-61
2023/03/12 03:35:34;;;;;;;;;;;;;;;6.53;42.17;94331.19;5038759;28;19946;-61
2023/03/12 03:38:03;;;;;;;;;;;;;;;6.44;42.09;94324.84;5027525;28;20388;-61
2023/03/12 03:40:29;;;;;;;;;;;;;;;6.41;41.92;94330.53;5028658;28;20054;-60
2023/03/12 03:42:56;;;;;;;;;;;;;;;6.77;41.13;94323.91;5026770;28;20437;-61
2023/03/12 03:45:23;;;;;;;;;;;;;;;6.59;41.84;94338.03;5027354;28;19950;-60
2023/03/12 03:47:50;;;;;;;;;;;;;;;6.54;42.00;94335.38;5026427;28;20378;-60
2023/03/12 03:50:17;;;;;;;;;;;;;;;6.16;41.81;94338.03;5027333;28;19946;-60
2023/03/12 03:52:43;;;;;;;;;;;;;;;6.40;41.50;94339.38;5026593;28;20025;-62
2023/03/12 03:55:10;;;;;;;;;;;;;;;6.01;41.70;94337.84;5014923;28;19963;-60
2023/03/12 03:57:38;;;;;;;;;;;;;;;6.27;41.93;94342.34;5031990;28;20429;-59
2023/03/12 04:00:08;;;;;;;;;;;;;;;6.19;41.69;94363.56;5027221;28;19942;-60
2023/03/12 04:02:39;;;;;;;;;;;;;;;6.40;40.59;94344.59;5028480;28;19945;-60
2023/03/12 04:05:08;;;;;;;;;;;;;;;6.64;41.04;94376.34;5027416;28;20047;-60
2023/03/12 04:07:39;;;;;;;;;;;;;;;6.49;40.81;94384.78;5042077;28;20313;-61
2023/03/12 04:10:06;;;;;;;;;;;;;;;5.72;42.04;94383.16;5026988;28;19941;-60
2023/03/12 04:12:33;;;;;;;;;;;;;;;6.24;41.09;94394.84;5026429;28;19991;-60
2023/03/12 04:15:00;;;;;;;;;;;;;;;6.34;40.58;94381.97;5026953;28;20189;-60
2023/03/12 04:17:26;;;;;;;;;;;;;;;6.54;40.46;94397.84;5023797;28;19954;-61
2023/03/12 04:19:56;;;;;;;;;;;;;;;6.73;40.27;94406.91;5026965;28;20420;-60
2023/03/12 04:22:23;;;;;;;;;;;;;;;6.24;40.56;94392.22;5026258;28;20384;-59
2023/03/12 04:24:51;;;;;;;;;;;;;;;5.94;40.08;94415.22;5026466;28;19962;-60
2023/03/12 04:27:18;;;;;;;;;;;;;;;5.34;40.82;94414.25;5014554;28;19962;-60
2023/03/12 04:29:45;;;;;;;;;;;;;;;5.46;39.66;94413.16;5030349;28;20012;-61
2023/03/12 04:32:12;;;;;;;;;;;;;;;5.33;40.54;94421.25;5030198;28;19949;-60
2023/03/12 04:34:39;;;;;;;;;;;;;;;5.07;40.97;94432.22;5031939;28;20034;-59
2023/03/12 04:37:06;;;;;;;;;;;;;;;5.48;39.96;94433.69;5030561;28;19953;-60
2023/03/12 04:39:33;;;;;;;;;;;;;;;5.78;39.73;94429.00;5031791;28;19953;-60
2023/03/12 04:41:59;;;;;;;;;;;;;;;4.95;40.49;94432.25;5031354;28;19974;-60
2023/03/12 04:44:26;;;;;;;;;;;;;;;5.55;39.80;94436.94;5030489;28;20011;-60
2023/03/12 04:46:53;;;;;;;;;;;;;;;4.99;40.05;94440.38;5014434;28;19951;-60
2023/03/12 04:49:23;;;;;;;;;;;;;;;5.79;39.25;94456.56;5029982;28;20417;-61
2023/03/12 04:51:50;;;;;;;;;;;;;;;5.73;39.65;94452.31;5045807;28;19957;-59
2023/03/12 04:54:20;;;;;;;;;;;;;;;5.32;39.80;94465.63;5030544;28;20581;-61
2023/03/12 04:56:47;;;;;;;;;;;;;;;5.66;39.06;94468.06;5016665;28;20408;-61
2023/03/12 04:59:15;;;;;;;;;;;;;;;5.16;39.65;94475.75;5029166;28;19997;-60
2023/03/12 05:01:44;;;;;;;;;;;;;;;5.80;39.12;94478.94;5022551;28;19949;-60
2023/03/12 05:04:17;;;;;;;;;;;;;;;5.87;39.32;94475.22;5042682;28;20622;-61
2023/03/12 05:06:43;;;;;;;;;;;;;;;5.71;39.25;94486.31;5029348;28;19965;-60
2023/03/12 05:09:10;;;;;;;;;;;;;;;4.69;40.73;94492.47;5031294;28;19961;-60
2023/03/12 05:11:37;;;;;;;;;;;;;;;5.20;40.25;94496.06;5031097;28;19956;-59
2023/03/12 05:14:06;;;;;;;;;;;;;;;4.94;40.69;94500.78;5029601;28;19979;-60
2023/03/12 05:16:33;;;;;;;;;;;;;;;5.48;40.19;94503.84;5029640;28;19948;-60
2023/03/12 05:19:01;;;;;;;;;;;;;;;5.43;40.03;94503.78;5030050;28;19957;-61
2023/03/12 05:21:29;;;;;;;;;;;;;;;5.31;39.95;94506.41;5028920;28;19957;-60
2023/03/12 05:23:58;;;;;;;;;;;;;;;5.62;39.60;94502.56;5029261;28;19955;-60
2023/03/12 05:26:30;;;;;;;;;;;;;;;6.21;39.08;94509.78;5035270;28;20049;-61
2023/03/12 05:29:13;;;;;;;;;;;;;;;5.91;39.64;94507.50;5019138;28;19969;-60
2023/03/12 05:31:40;;;;;;;;;;;;;;;5.77;39.33;94510.59;5028498;28;19956;-61
2023/03/12 05:34:10;;;;;;;;;;;;;;;5.82;39.28;94514.06;5029114;28;19958;-61
2023/03/12 05:36:38;;;;;;;;;;;;;;;5.88;39.35;94517.56;5028501;28;19944;-62
2023/03/12 05:39:05;;;;;;;;;;;;;;;5.61;39.52;94512.16;5028984;28;19959;-61
2023/03/12 05:41:33;;;;;;;;;;;;;;;5.64;39.45;94524.69;5028569;28;19987;-60
2023/03/12 05:44:06;;;;;;;;;;;;;;;6.15;38.17;94534.13;5039141;28;19995;-60
2023/03/12 05:46:34;;;;;;;;;;;;;;;6.31;38.16;94532.56;5034230;28;20468;-60
2023/03/12 05:49:00;;;;;;;;;;;;;;;6.28;38.38;94526.00;5030393;28;19966;-62
2023/03/12 05:51:30;;;;;;;;;;;;;;;6.37;37.27;94529.78;5028688;28;20043;-60
2023/03/12 05:53:58;;;;;;;;;;;;;;;6.71;36.92;94533.94;5038728;28;19965;-60
2023/03/12 05:56:24;;;;;;;;;;;;;;;6.51;37.34;94538.88;5025546;28;19944;-60
2023/03/12 05:58:51;;;;;;;;;;;;;;;6.37;37.75;94548.00;5026753;28;19953;-61
2023/03/12 06:01:21;;;;;;;;;;;;;;;6.37;37.68;94558.41;5028169;28;19951;-60
2023/03/12 06:03:48;;;;;;;;;;;;;;;6.94;36.61;94558.97;5022878;28;20325;-60
2023/03/12 06:06:15;;;;;;;;;;;;;;;6.17;37.39;94563.31;5023187;28;19987;-61
2023/03/12 06:08:42;;;;;;;;;;;;;;;6.38;37.14;94560.00;5027169;28;19997;-60
2023/03/12 06:11:10;;;;;;;;;;;;;;;6.39;37.07;94566.78;5027760;28;19948;-60
2023/03/12 06:13:37;;;;;;;;;;;;;;;6.42;36.43;94565.53;5024821;28;19947;-60
2023/03/12 06:16:05;;;;;;;;;;;;;;;6.31;37.16;94563.78;5028187;28;20318;-61
2023/03/12 06:18:32;;;;;;;;;;;;;;;6.59;36.15;94572.28;5027681;28;19950;-61
2023/03/12 06:21:16;;;;;;;;;;;;;;;6.44;36.22;94563.47;5026548;28;20358;-60
2023/03/12 06:23:45;;;;;;;;;;;;;;;6.62;36.49;94592.66;5027815;28;19954;-61
2023/03/12 06:26:18;;;;;;;;;;;;;;;6.52;36.36;94584.69;5036668;28;19946;-62
2023/03/12 06:28:45;;;;;;;;;;;;;;;6.30;35.40;94583.81;5028586;28;19961;-61
2023/03/12 06:31:12;;;;;;;;;;;;;;;6.44;35.77;94590.28;5032121;28;19951;-61
2023/03/12 06:33:39;;;;;;;;;;;;;;;7.16;38.69;94599.66;5028884;28;20108;-61
2023/03/12 06:36:07;;;;;;;;;;;;;;;7.41;38.27;94593.19;5027417;28;20057;-64
2023/03/12 06:38:34;;;;;;;;;;;;;;;7.65;36.41;94591.88;5028647;28;20074;-61
2023/03/12 06:41:02;;;;;;;;;;;;;;;7.57;35.72;94600.16;5015707;28;19992;-62
2023/03/12 06:43:30;;;;;;;;;;;;;;;7.85;35.67;94605.94;5027750;28;19969;-61
2023/03/12 06:45:58;;;;;;;;;;;;;;;7.36;34.66;94613.97;5028925;28;19951;-61
2023/03/12 06:48:26;;;;;;;;;;;;;;;7.39;36.19;94613.50;5028027;28;19968;-61
2023/03/12 06:50:53;;;;;;;;;;;;;;;7.82;35.74;94608.25;5024051;28;19945;-62
2023/03/12 06:53:20;;;;;;;;;;;;;;;6.93;35.96;94605.06;5014512;28;19950;-60
2023/03/12 06:55:48;;;;;;;;;;;;;;;7.29;34.99;94613.34;5028622;28;19949;-61
2023/03/12 06:58:15;;;;;;;;;;;;;;;7.69;35.17;94626.88;5029437;28;20371;-61
2023/03/12 07:00:43;;;;;;;;;;;;;;;7.44;35.37;94621.38;5029320;28;20464;-61
2023/03/12 07:03:09;;;;;;;;;;;;;;;7.30;34.81;94614.94;5023310;28;20402;-62
2023/03/12 07:05:36;;;;;;;;;;;;;;;7.59;35.08;94624.16;5030663;28;20341;-63
2023/03/12 07:08:03;;;;;;;;;;;;;;;7.59;33.69;94637.22;5028289;28;19956;-61
2023/03/12 07:10:30;;;;;;;;;;;;;;;7.86;35.28;94635.44;5028283;28;19949;-63
2023/03/12 07:12:57;;;;;;;;;;;;;;;7.72;33.78;94639.44;5028495;28;19976;-62
2023/03/12 07:15:23;;;;;;;;;;;;;;;7.10;33.53;94641.50;5008872;28;20392;-62
2023/03/12 07:17:50;;;;;;;;;;;;;;;7.45;33.45;94656.81;5004603;28;20046;-62
2023/03/12 07:20:17;;;;;;;;;;;;;;;7.75;34.77;94644.97;5023053;28;19943;-61
2023/03/12 07:22:44;;;;;;;;;;;;;;;8.12;33.53;94658.13;5031605;28;20063;-62
2023/03/12 07:25:10;;;;;;;;;;;;;;;7.93;33.52;94662.09;5014360;28;19976;-61
2023/03/12 07:27:37;;;;;;;;;;;;;;;7.81;32.78;94671.91;5027284;28;19947;-60
2023/03/12 07:30:04;;;;;;;;;;;;;;;7.57;33.82;94673.16;5027284;28;20416;-61
2023/03/12 07:32:32;;;;;;;;;;;;;;;7.39;32.42;94663.78;5027239;28;19959;-61
2023/03/12 07:34:59;;;;;;;;;;;;;;;8.00;34.27;94668.72;5028286;28;19948;-63
2023/03/12 07:37:26;;;;;;;;;;;;;;;8.09;34.11;94672.47;5028215;28;20415;-63
2023/03/12 07:39:53;;;;;;;;;;;;;;;7.87;33.07;94684.75;5028054;28;19983;-63
2023/03/12 07:42:20;;;;;;;;;;;;;;;7.94;33.40;94684.53;5027540;28;20054;-61
2023/03/12 07:44:47;;;;;;;;;;;;;;;7.97;33.30;94678.84;5026714;28;19944;-62
2023/03/12 07:47:14;;;;;;;;;;;;;;;7.93;33.01;94682.97;5027986;28;19958;-63
2023/03/12 07:49:50;;;;;;;;;;;;;;;8.09;32.10;94688.13;5023150;28;20023;-61
2023/03/12 07:52:18;;;;;;;;;;;;;;;8.53;32.61;94696.69;5027632;28;20061;-63
2023/03/12 07:54:46;;;;;;;;;;;;;;;8.29;32.43;94695.41;5028025;28;19947;-62
2023/03/12 07:57:13;;;;;;;;;;;;;;;8.27;31.68;94689.63;5027549;28;19948;-62
2023/03/12 07:59:40;;;;;;;;;;;;;;;8.38;32.02;94686.09;5028051;28;19941;-62
2023/03/12 08:02:08;;;;;;;;;;;;;;;8.13;32.15;94683.19;5027490;28;19957;-62
2023/03/12 08:04:35;;;;;;;;;;;;;;;8.37;32.07;94688.97;5027328;28;20003;-62
2023/03/12 08:07:02;;;;;;;;;;;;;;;8.21;32.86;94722.69;5026944;28;19960;-61
2023/03/12 08:09:29;;;;;;;;;;;;;;;8.64;31.59;94700.19;5028332;28;20003;-62
2023/03/12 08:11:55;;;;;;;;;;;;;;;8.22;31.27;94692.19;5027126;28;20418;-63
2023/03/12 08:14:22;;;;;;;;;;;;;;;8.09;32.27;94713.44;5028081;28;20012;-60
2023/03/12 08:16:49;;;;;;;;;;;;;;;8.14;31.54;94727.31;5026809;28;20414;-61
2023/03/12 08:19:16;;;;;;;;;;;;;;;8.00;32.20;94720.09;5027817;28;19949;-60
2023/03/12 08:21:42;;;;;;;;;;;;;;;8.09;32.06;94729.09;5015201;28;19952;-61
2023/03/12 08:24:09;;;;;;;;;;;;;;;8.13;31.80;94719.75;5027378;28;19951;-61
2023/03/12 08:26:36;;;;;;;;;;;;;;;8.21;31.88;94727.91;5027325;28;19945;-61
2023/03/12 08:29:02;;;;;;;;;;;;;;;8.83;32.26;94723.06;5027107;28;20033;-61
2023/03/12 08:31:29;;;;;;;;;;;;;;;8.42;32.10;94731.56;5027198;28;19999;-62
2023/03/12 08:33:56;;;;;;;;;;;;;;;8.48;31.89;94743.66;5028964;28;19950;-61
2023/03/12 08:36:24;;;;;;;;;;;;;;;8.57;31.36;94747.41;5027232;28;20436;-61
2023/03/12 08:38:50;;;;;;;;;;;;;;;8.52;31.29;94738.72;5027608;28;20020;-61
2023/03/12 08:41:17;;;;;;;;;;;;;;;8.52;30.68;94730.91;5027460;28;19955;-60
2023/03/12 08:43:44;;;;;;;;;;;;;;;9.06;33.75;94746.28;5027042;28;20007;-62
2023/03/12 08:46:11;;;;;;;;;;;;;;;9.47;31.55;94741.34;5025996;28;19973;-62
2023/03/12 08:48:39;;;;;;;;;;;;;;;9.73;30.30;94730.00;5030167;28;19982;-61
2023/03/12 08:51:06;;;;;;;;;;;;;;;9.21;30.68;94730.69;5025178;28;19951;-61
2023/03/12 08:53:34;;;;;;;;;;;;;;;9.03;30.83;94744.16;5014692;28;19947;-62
2023/03/12 08:56:01;;;;;;;;;;;;;;;9.01;30.82;94738.38;5026872;28;19981;-61
2023/03/12 08:58:28;;;;;;;;;;;;;;;9.53;30.41;94735.09;5040117;28;19947;-62
2023/03/12 09:00:55;;;;;;;;;;;;;;;9.68;31.03;94735.19;5029166;28;20462;-62
2023/03/12 09:03:22;;;;;;;;;;;;;;;9.64;29.91;94736.75;5032093;28;19950;-62
2023/03/12 09:05:49;;;;;;;;;;;;;;;9.89;30.26;94745.50;5026874;28;19951;-61
2023/03/12 09:08:16;;;;;;;;;;;;;;;9.52;30.38;94733.53;5027603;28;19947;-62
2023/03/12 09:10:47;;;;;;;;;;;;;;;10.19;30.20;94740.47;5026555;28;20080;-63
2023/03/12 09:13:14;;;;;;;;;;;;;;;10.85;30.79;94744.03;5027374;28;19952;-61
2023/03/12 09:15:41;;;;;;;;;;;;;;;11.44;29.93;94740.91;5029640;28;19943;-62
2023/03/12 09:18:07;;;;;;;;;;;;;;;10.45;29.35;94743.97;5030612;28;19979;-61
2023/03/12 09:20:34;;;;;;;;;;;;;;;10.27;29.50;94736.56;5030459;28;19942;-62
2023/03/12 09:23:01;;;;;;;;;;;;;;;9.96;28.72;94724.38;5030905;28;20066;-60
2023/03/12 09:25:28;;;;;;;;;;;;;;;9.36;28.98;94713.56;5030738;28;20025;-62
2023/03/12 09:27:54;;;;;;;;;;;;;;;10.27;29.96;94735.78;5030684;28;19957;-63
2023/03/12 09:30:25;;;;;;;;;;;;;;;10.97;29.40;94741.94;5031338;28;20014;-61
2023/03/12 09:32:52;;;;;;;;;;;;;;;10.21;28.66;94737.59;5032162;28;19947;-61
2023/03/12 09:35:19;;;;;;;;;;;;;;;10.66;30.16;94740.31;5031040;28;19995;-63
2023/03/12 09:37:50;;;;;;;;;;;;;;;10.51;29.04;94742.13;5028937;28;19986;-60
2023/03/12 09:40:20;;;;;;;;;;;;;;;10.30;29.40;94743.09;5030600;28;20431;-61
2023/03/12 09:42:50;;;;;;;;;;;;;;;10.59;29.49;94734.56;5029481;28;19961;-60
2023/03/12 09:45:20;;;;;;;;;;;;;;;10.68;29.12;94733.00;5030460;28;19947;-61
2023/03/12 09:47:55;;;;;;;;;;;;;;;10.60;28.67;94730.09;5028324;28;19993;-61
2023/03/12 09:50:25;;;;;;;;;;;;;;;10.84;28.41;94729.34;5030050;28;19996;-59
2023/03/12 09:52:58;;;;;;;;;;;;;;;11.14;28.82;94728.59;5029175;28;20441;-61
2023/03/12 09:55:26;;;;;;;;;;;;;;;11.59;27.94;94733.00;5030299;28;19950;-61
2023/03/12 09:57:53;;;;;;;;;;;;;;;11.82;29.17;94727.22;5027610;28;19945;-59
2023/03/12 10:00:21;;;;;;;;;;;;;;;12.25;28.11;94731.81;5029980;28;20503;-61
2023/03/12 10:03:07;;;;;;;;;;;;;;;12.35;27.48;94731.78;5026652;28;19974;-59
2023/03/12 10:05:43;;;;;;;;;;;;;;;12.27;33.13;94724.44;5025626;28;20076;-62
2023/03/12 10:08:19;;;;;;;;;;;;;;;12.59;29.64;94716.91;5022970;28;19942;-60
2023/03/12 10:11:06;;;;;;;;;;;;;;;12.62;26.97;94720.84;5026333;28;20028;-61
2023/03/12 10:13:33;;;;;;;;;;;;;;;12.44;26.48;94724.91;5028405;28;19986;-62
2023/03/12 10:16:02;;;;;;;;;;;;;;;12.51;27.06;94717.50;5016346;28;20390;-61
2023/03/12 10:18:49;;;;;;;;;;;;;;;12.22;26.57;94713.97;5023551;28;20004;-61
2023/03/12 10:21:21;;;;;;;;;;;;;;;12.10;29.19;94705.59;5007548;28;19953;-62
2023/03/12 10:23:55;;;;;;;;;;;;;;;12.24;27.16;94704.75;5027814;28;20031;-62
2023/03/12 10:26:30;;;;;;;;;;;;;;;12.80;27.63;94707.88;5028864;28;19999;-61
2023/03/12 10:29:24;;;;;;;;;;;;;;;12.40;26.13;94712.56;5029475;28;20329;-61
2023/03/12 10:32:05;;;;;;;;;;;;;;;10.88;27.13;94722.53;5021954;28;20697;-62
2023/03/12 10:34:39;;;;;;;;;;;;;;;11.84;28.18;94714.63;5029100;28;19958;-61
2023/03/12 10:37:13;;;;;;;;;;;;;;;12.16;26.24;94707.16;5028797;28;19976;-61
2023/03/12 10:39:40;;;;;;;;;;;;;;;12.25;27.53;94705.53;5030220;28;19944;-60
2023/03/12 10:42:17;;;;;;;;;;;;;;;12.96;27.30;94716.41;5027914;28;20011;-62
2023/03/12 10:44:47;;;;;;;;;;;;;;;12.99;27.68;94727.16;5029176;28;19945;-60
2023/03/12 10:47:25;;;;;;;;;;;;;;;12.86;25.86;94719.94;5029326;28;20394;-61
2023/03/12 10:49:52;;;;;;;;;;;;;;;11.47;25.96;94711.50;5015708;28;19956;-60
2023/03/12 10:52:20;;;;;;;;;;;;;;;11.10;28.50;94714.44;5028417;28;19946;-61
2023/03/12 10:54:49;;;;;;;;;;;;;;;11.35;27.66;94716.25;5029720;28;20035;-62
2023/03/12 10:57:16;;;;;;;;;;;;;;;12.10;27.30;94713.47;5029924;28;19945;-61
2023/03/12 10:59:44;;;;;;;;;;;;;;;12.38;27.27;94712.84;5029152;28;19941;-60
2023/03/12 11:02:29;;;;;;;;;;;;;;;11.33;26.97;94698.13;5029408;28;19945;-62
2023/03/12 11:04:58;;;;;;;;;;;;;;;11.41;27.55;94704.69;5018136;28;20520;-61
2023/03/12 11:07:32;;;;;;;;;;;;;;;12.33;27.61;94706.81;5029111;28;20023;-62
2023/03/12 11:10:05;;;;;;;;;;;;;;;12.70;26.62;94702.66;5029286;28;19963;-60
2023/03/12 11:12:34;;;;;;;;;;;;;;;13.30;26.68;94695.41;5030708;28;19945;-62
2023/03/12 11:15:16;;;;;;;;;;;;;;;12.32;26.67;94700.75;5031806;28;19947;-62
2023/03/12 11:17:43;;;;;;;;;;;;;;;13.32;27.70;94699.31;5018045;28;19944;-61
2023/03/12 11:20:22;;;;;;;;;;;;;;;13.21;27.63;94692.56;5029268;28;19992;-64
2023/03/12 11:22:50;;;;;;;;;;;;;;;14.10;29.71;94694.59;5028313;28;19946;-62
2023/03/12 11:25:20;;;;;;;;;;;;;;;14.50;25.43;94694.13;5028659;28;19955;-62
2023/03/12 11:27:49;;;;;;;;;;;;;;;14.28;25.21;94688.59;5028000;28;20542;-62
2023/03/12 11:30:20;;;;;;;;;;;;;;;14.37;25.13;94683.47;5027777;28;20409;-62
2023/03/12 11:32:48;;;;;;;;;;;;;;;13.98;25.69;94694.19;5028087;28;20326;-62
2023/03/12 11:35:17;;;;;;;;;;;;;;;13.94;24.45;94675.53;5028635;28;20380;-60
2023/03/12 11:38:00;;;;;;;;;;;;;;;13.86;24.65;94684.06;5026199;28;19945;-60
2023/03/12 11:40:45;;;;;;;;;;;;;;;13.23;25.26;94687.06;5027914;28;20073;-59
2023/03/12 11:43:12;;;;;;;;;;;;;;;13.87;25.56;94685.63;5027248;28;19970;-60
2023/03/12 11:46:05;;;;;;;;;;;;;;;13.68;23.65;94686.63;5022059;28;20669;-61
2023/03/12 11:48:32;;;;;;;;;;;;;;;13.69;23.72;94682.91;5024939;28;19952;-61
2023/03/12 11:50:58;;;;;;;;;;;;;;;13.53;24.27;94673.59;5027489;28;19966;-62
2023/03/12 11:53:34;;;;;;;;;;;;;;;14.35;25.10;94660.03;5022897;28;20031;-61
2023/03/12 11:56:16;;;;;;;;;;;;;;;14.19;24.81;94672.59;5020917;28;19994;-61
2023/03/12 11:59:01;;;;;;;;;;;;;;;13.43;24.53;94673.72;5026351;28;19988;-62
2023/03/12 12:01:35;;;;;;;;;;;;;;;13.11;24.30;94677.69;5016537;28;19978;-63
2023/03/12 12:04:02;;;;;;;;;;;;;;;12.80;25.40;94689.47;5026611;28;20056;-63
2023/03/12 12:06:52;;;;;;;;;;;;;;;12.98;25.11;94673.00;5025349;28;20022;-60
2023/03/12 12:09:33;;;;;;;;;;;;;;;13.80;25.93;94671.22;5025888;28;19958;-62
2023/03/12 12:12:00;;;;;;;;;;;;;;;14.01;26.71;94680.47;5026969;28;19947;-59
2023/03/12 12:14:45;;;;;;;;;;;;;;;13.50;24.98;94679.44;5029028;28;20515;-61
2023/03/12 12:17:18;;;;;;;;;;;;;;;13.82;25.33;94671.72;5014281;28;20085;-63
2023/03/12 12:20:02;;;;;;;;;;;;;;;13.18;24.27;94678.16;5031457;28;19947;-61
2023/03/12 12:22:48;;;;;;;;;;;;;;;13.56;25.62;94688.84;5026908;28;19949;-63
2023/03/12 12:25:24;;;;;;;;;;;;;;;13.62;24.33;94687.72;5020856;28;19961;-61
2023/03/12 12:28:07;;;;;;;;;;;;;;;14.05;24.93;94686.75;5022270;28;19975;-62
2023/03/12 12:30:46;;;;;;;;;;;;;;;14.07;24.20;94674.06;5027493;28;19940;-60
2023/03/12 12:33:32;;;;;;;;;;;;;;;13.69;25.22;94682.91;5029743;28;19948;-60
2023/03/12 12:36:00;;;;;;;;;;;;;;;13.87;24.44;94666.38;5016309;28;20739;-60
2023/03/12 12:38:29;;;;;;;;;;;;;;;14.20;24.45;94668.09;5027481;28;20339;-61
2023/03/12 12:41:02;;;;;;;;;;;;;;;14.08;24.50;94675.63;5027047;28;19948;-63
2023/03/12 12:43:35;;;;;;;;;;;;;;;14.59;23.34;94671.31;5027007;28;19967;-61
2023/03/12 12:46:11;;;;;;;;;;;;;;;15.00;23.10;94667.00;5027038;28;20565;-60
2023/03/12 12:48:45;;;;;;;;;;;;;;;15.12;23.63;94651.50;5017886;28;20572;-62
2023/03/12 12:51:15;;;;;;;;;;;;;;;15.02;23.53;94664.84;5029840;28;19954;-59
2023/03/12 12:53:45;;;;;;;;;;;;;;;14.76;23.54;94674.22;5030938;28;20028;-63
2023/03/12 12:56:30;;;;;;;;;;;;;;;13.78;24.20;94676.75;5029115;28;20367;-63
2023/03/12 12:58:57;;;;;;;;;;;;;;;15.20;23.99;94666.66;5031266;28;19986;-61
2023/03/12 13:01:25;;;;;;;;;;;;;;;16.18;23.18;94665.44;5031227;28;20437;-62
2023/03/12 13:04:01;;;;;;;;;;;;;;;15.47;22.68;94670.50;5031191;28;19947;-59
2023/03/12 13:06:48;;;;;;;;;;;;;;;15.59;22.83;94678.72;5018475;28;19953;-61